createdAt,value
2016-05-18T00:00:03.791Z,0
2016-05-18T00:01:03.886Z,0
2016-05-18T00:01:57.511Z,0
2016-05-18T00:02:57.594Z,0
2016-05-18T00:04:03.942Z,0
2016-05-18T00:04:57.505Z,0
2016-05-18T00:05:57.289Z,0
2016-05-18T00:07:06.528Z,0
2016-05-18T00:08:12.280Z,0
2016-05-18T00:09:09.518Z,0
2016-05-18T00:10:00.252Z,0
2016-05-18T00:11:00.224Z,0
2016-05-18T00:12:09.010Z,0
2016-05-18T00:12:59.948Z,0
2016-05-18T00:13:56.888Z,0
2016-05-18T00:15:00.016Z,0
2016-05-18T00:15:56.956Z,0
2016-05-18T00:16:59.756Z,0
2016-05-18T00:17:56.868Z,0
2016-05-18T00:18:59.855Z,0
2016-05-18T00:19:59.482Z,0
2016-05-18T00:20:59.720Z,0
2016-05-18T00:21:59.862Z,0
2016-05-18T00:22:59.725Z,0
2016-05-18T00:23:56.587Z,0
2016-05-18T00:24:56.542Z,0
2016-05-18T00:25:56.687Z,0
2016-05-18T00:26:59.454Z,0
2016-05-18T00:27:56.519Z,0
2016-05-18T00:28:56.381Z,0
2016-05-18T00:29:56.337Z,0
2016-05-18T00:30:56.278Z,0
2016-05-18T00:31:56.139Z,0
2016-05-18T00:33:02.159Z,0
2016-05-18T00:33:59.161Z,0
2016-05-18T00:34:59.069Z,0
2016-05-18T00:35:59.010Z,0
2016-05-18T00:36:58.935Z,0
2016-05-18T00:37:59.124Z,0
2016-05-18T00:38:58.862Z,0
2016-05-18T00:40:04.882Z,0
2016-05-18T00:40:55.866Z,0
2016-05-18T00:42:01.402Z,0
2016-05-18T00:43:04.874Z,0
2016-05-18T00:44:01.796Z,0
2016-05-18T00:44:55.566Z,0
2016-05-18T00:46:04.758Z,0
2016-05-18T00:47:01.477Z,0
2016-05-18T00:48:01.276Z,0
2016-05-18T00:48:58.232Z,0
2016-05-18T00:49:58.344Z,0
2016-05-18T00:50:58.285Z,0
2016-05-18T00:51:55.428Z,0
2016-05-18T00:52:58.384Z,0
2016-05-18T00:53:55.731Z,0
2016-05-18T00:55:00.983Z,0
2016-05-18T00:55:55.032Z,0
2016-05-18T00:56:57.675Z,0
2016-05-18T00:57:57.928Z,0
2016-05-18T00:58:57.947Z,0
2016-05-18T01:00:00.715Z,0
2016-05-18T01:01:01.045Z,0
2016-05-18T01:01:57.595Z,0
2016-05-18T01:02:55.161Z,0
2016-05-18T01:03:57.741Z,0
2016-05-18T01:04:57.463Z,0
2016-05-18T01:06:00.575Z,0
2016-05-18T01:06:57.344Z,0
2016-05-18T01:07:57.533Z,0
2016-05-18T01:08:57.396Z,0
2016-05-18T01:09:54.367Z,0
2016-05-18T01:10:54.307Z,0
2016-05-18T01:11:54.622Z,0
2016-05-18T01:12:57.249Z,0
2016-05-18T01:13:54.019Z,0
2016-05-18T01:14:57.130Z,0
2016-05-18T01:15:54.257Z,0
2016-05-18T01:16:54.292Z,0
2016-05-18T01:17:57.216Z,0
2016-05-18T01:18:53.782Z,0
2016-05-18T01:19:56.909Z,0
2016-05-18T01:20:59.694Z,0
2016-05-18T01:21:59.477Z,0
2016-05-18T01:22:54.012Z,0
2016-05-18T01:23:53.732Z,0
2016-05-18T01:24:53.484Z,0
2016-05-18T01:25:59.317Z,0
2016-05-18T01:26:56.397Z,0
2016-05-18T01:27:56.493Z,0
2016-05-18T01:29:05.873Z,0
2016-05-18T01:29:53.623Z,0
2016-05-18T01:30:53.658Z,0
2016-05-18T01:31:53.347Z,0
2016-05-18T01:33:02.961Z,0
2016-05-18T01:33:56.197Z,0
2016-05-18T01:34:56.356Z,0
2016-05-18T01:35:56.108Z,0
2016-05-18T01:36:53.064Z,0
2016-05-18T01:37:57.364Z,0
2016-05-18T01:38:56.179Z,0
2016-05-18T01:39:52.760Z,0
2016-05-18T01:40:58.903Z,0
2016-05-18T01:41:55.797Z,0
2016-05-18T01:42:52.768Z,0
2016-05-18T01:43:52.724Z,0
2016-05-18T01:44:55.571Z,0
2016-05-18T01:45:59.166Z,0
2016-05-18T01:46:55.576Z,0
2016-05-18T01:47:55.954Z,0
2016-05-18T01:48:52.379Z,0
2016-05-18T01:49:58.146Z,0
2016-05-18T01:50:58.493Z,0
2016-05-18T01:51:52.745Z,0
2016-05-18T01:52:55.295Z,0
2016-05-18T01:53:52.095Z,0
2016-05-18T01:54:52.409Z,0
2016-05-18T01:55:52.131Z,0
2016-05-18T01:56:52.306Z,0
2016-05-18T01:57:54.903Z,0
2016-05-18T01:58:51.842Z,0
2016-05-18T01:59:52.142Z,0
2016-05-18T02:00:51.739Z,0
2016-05-18T02:01:55.272Z,0
2016-05-18T02:02:51.838Z,0
2016-05-18T02:03:54.762Z,0
2016-05-18T02:04:54.936Z,0
2016-05-18T02:06:00.705Z,0
2016-05-18T02:06:51.614Z,0
2016-05-18T02:07:54.694Z,0
2016-05-18T02:08:54.385Z,0
2016-05-18T02:09:51.450Z,0
2016-05-18T02:10:51.405Z,0
2016-05-18T02:11:54.441Z,0
2016-05-18T02:12:51.521Z,0
2016-05-18T02:13:57.116Z,0
2016-05-18T02:15:00.245Z,0
2016-05-18T02:15:54.701Z,0
2016-05-18T02:17:03.500Z,0
2016-05-18T02:17:53.924Z,0
2016-05-18T02:19:03.068Z,0
2016-05-18T02:19:50.852Z,0
2016-05-18T02:20:53.948Z,0
2016-05-18T02:21:53.795Z,0
2016-05-18T02:22:54.438Z,0
2016-05-18T02:23:50.801Z,0
2016-05-18T02:24:50.787Z,0
2016-05-18T02:25:50.696Z,0
2016-05-18T02:26:53.512Z,0
2016-05-18T02:27:54.014Z,0
2016-05-18T02:28:50.611Z,0
2016-05-18T02:29:51.050Z,0
2016-05-18T02:30:56.804Z,0
2016-05-18T02:31:50.400Z,0
2016-05-18T02:32:59.387Z,0
2016-05-18T02:33:53.280Z,0
2016-05-18T02:34:50.283Z,0
2016-05-18T02:35:56.223Z,0
2016-05-18T02:36:50.086Z,0
2016-05-18T02:37:52.994Z,0
2016-05-18T02:38:53.091Z,0
2016-05-18T02:39:53.219Z,0
2016-05-18T02:40:52.799Z,0
2016-05-18T02:41:55.802Z,0
2016-05-18T02:42:49.883Z,0
2016-05-18T02:43:50.041Z,0
2016-05-18T02:44:49.622Z,0
2016-05-18T02:45:55.765Z,0
2016-05-18T02:46:50.113Z,0
2016-05-18T02:47:49.677Z,0
2016-05-18T02:48:52.586Z,0
2016-05-18T02:50:01.995Z,0
2016-05-18T02:50:49.467Z,0
2016-05-18T02:51:49.126Z,0
2016-05-18T02:52:52.425Z,0
2016-05-18T02:53:52.194Z,0
2016-05-18T02:54:52.306Z,0
2016-05-18T02:55:55.276Z,0
2016-05-18T02:56:52.436Z,0
2016-05-18T02:57:55.189Z,0
2016-05-18T02:58:49.504Z,0
2016-05-18T02:59:52.069Z,0
2016-05-18T03:00:52.275Z,0
2016-05-18T03:01:58.184Z,0
2016-05-18T03:02:54.764Z,0
2016-05-18T03:03:49.330Z,0
2016-05-18T03:04:51.942Z,0
2016-05-18T03:05:48.617Z,0
2016-05-18T03:06:48.572Z,0
2016-05-18T03:07:51.716Z,0
2016-05-18T03:08:54.499Z,0
2016-05-18T03:09:51.439Z,0
2016-05-18T03:10:54.567Z,0
2016-05-18T03:11:51.522Z,0
2016-05-18T03:12:54.683Z,0
2016-05-18T03:13:57.403Z,0
2016-05-18T03:14:51.984Z,4
2016-05-18T03:15:54.362Z,4
2016-05-18T03:17:00.302Z,4
2016-05-18T03:17:54.399Z,4
2016-05-18T03:18:51.354Z,0
2016-05-18T03:20:00.374Z,0
2016-05-18T03:20:51.594Z,4
2016-05-18T03:21:54.065Z,4
2016-05-18T03:22:57.021Z,4
2016-05-18T03:23:54.117Z,0
2016-05-18T03:24:57.043Z,4
2016-05-18T03:25:50.810Z,4
2016-05-18T03:26:54.360Z,4
2016-05-18T03:27:50.707Z,8
2016-05-18T03:28:47.912Z,4
2016-05-18T03:29:50.853Z,8
2016-05-18T03:30:50.559Z,8
2016-05-18T03:31:47.562Z,8
2016-05-18T03:32:50.470Z,8
2016-05-18T03:33:50.332Z,8
2016-05-18T03:34:47.381Z,8
2016-05-18T03:35:47.384Z,8
2016-05-18T03:36:50.497Z,8
2016-05-18T03:37:50.249Z,16
2016-05-18T03:38:50.190Z,12
2016-05-18T03:39:56.160Z,12
2016-05-18T03:40:49.913Z,12
2016-05-18T03:41:47.025Z,16
2016-05-18T03:42:46.981Z,16
2016-05-18T03:43:47.344Z,24
2016-05-18T03:44:46.925Z,24
2016-05-18T03:45:50.052Z,28
2016-05-18T03:46:49.664Z,32
2016-05-18T03:47:52.995Z,36
2016-05-18T03:48:46.716Z,36
2016-05-18T03:49:55.688Z,36
2016-05-18T03:50:49.628Z,36
2016-05-18T03:51:46.459Z,36
2016-05-18T03:52:49.555Z,40
2016-05-18T03:53:52.823Z,40
2016-05-18T03:54:55.171Z,44
2016-05-18T03:55:49.563Z,52
2016-05-18T03:56:49.207Z,56
2016-05-18T03:57:46.257Z,60
2016-05-18T03:58:46.431Z,64
2016-05-18T03:59:49.168Z,68
2016-05-18T04:00:45.998Z,76
2016-05-18T04:01:46.126Z,80
2016-05-18T04:02:46.520Z,88
2016-05-18T04:03:48.992Z,96
2016-05-18T04:04:51.947Z,104
2016-05-18T04:05:49.090Z,104
2016-05-18T04:06:48.703Z,116
2016-05-18T04:07:52.017Z,128
2016-05-18T04:08:48.880Z,140
2016-05-18T04:09:54.711Z,152
2016-05-18T04:10:51.556Z,156
2016-05-18T04:11:51.450Z,160
2016-05-18T04:12:48.594Z,172
2016-05-18T04:13:48.331Z,188
2016-05-18T04:14:51.927Z,204
2016-05-18T04:15:54.414Z,220
2016-05-18T04:16:45.619Z,236
2016-05-18T04:17:48.341Z,256
2016-05-18T04:18:48.266Z,276
2016-05-18T04:19:51.424Z,296
2016-05-18T04:20:51.022Z,312
2016-05-18T04:21:48.118Z,328
2016-05-18T04:22:48.074Z,332
2016-05-18T04:23:45.232Z,336
2016-05-18T04:24:47.985Z,332
2016-05-18T04:25:44.910Z,348
2016-05-18T04:26:44.724Z,368
2016-05-18T04:27:44.822Z,376
2016-05-18T04:28:45.152Z,392
2016-05-18T04:29:44.717Z,400
2016-05-18T04:30:44.673Z,408
2016-05-18T04:31:48.034Z,428
2016-05-18T04:32:44.584Z,428
2016-05-18T04:33:47.509Z,436
2016-05-18T04:34:50.512Z,440
2016-05-18T04:35:47.437Z,464
2016-05-18T04:36:47.596Z,476
2016-05-18T04:37:47.239Z,484
2016-05-18T04:38:47.289Z,500
2016-05-18T04:39:44.792Z,516
2016-05-18T04:40:47.216Z,548
2016-05-18T04:41:44.156Z,560
2016-05-18T04:42:50.533Z,584
2016-05-18T04:43:52.895Z,612
2016-05-18T04:44:43.836Z,636
2016-05-18T04:45:50.151Z,648
2016-05-18T04:46:55.950Z,672
2016-05-18T04:47:43.844Z,696
2016-05-18T04:48:46.643Z,724
2016-05-18T04:49:46.615Z,744
2016-05-18T04:50:46.743Z,744
2016-05-18T04:51:46.480Z,760
2016-05-18T04:52:49.514Z,772
2016-05-18T04:53:53.126Z,792
2016-05-18T04:54:46.504Z,800
2016-05-18T04:55:46.724Z,804
2016-05-18T04:56:52.305Z,784
2016-05-18T04:57:49.401Z,780
2016-05-18T04:58:53.983Z,788
2016-05-18T04:59:46.329Z,804
2016-05-18T05:00:43.066Z,836
2016-05-18T05:01:43.679Z,880
2016-05-18T05:02:46.337Z,904
2016-05-18T05:03:45.996Z,940
2016-05-18T05:04:49.045Z,996
2016-05-18T05:05:42.986Z,1008
2016-05-18T05:06:48.942Z,1028
2016-05-18T05:07:46.116Z,1048
2016-05-18T05:08:45.978Z,1056
2016-05-18T05:09:42.795Z,1056
2016-05-18T05:10:42.780Z,1084
2016-05-18T05:11:42.549Z,1104
2016-05-18T05:12:42.489Z,1120
2016-05-18T05:13:43.008Z,1132
2016-05-18T05:14:42.682Z,1144
2016-05-18T05:15:46.153Z,1176
2016-05-18T05:16:42.500Z,1188
2016-05-18T05:17:42.612Z,1192
2016-05-18T05:18:42.209Z,1212
2016-05-18T05:19:42.821Z,1248
2016-05-18T05:20:45.354Z,1252
2016-05-18T05:21:42.216Z,1268
2016-05-18T05:22:45.532Z,1292
2016-05-18T05:23:48.113Z,1328
2016-05-18T05:24:42.288Z,1364
2016-05-18T05:25:48.024Z,1384
2016-05-18T05:26:47.965Z,1400
2016-05-18T05:27:45.279Z,1424
2016-05-18T05:28:41.846Z,1416
2016-05-18T05:29:41.910Z,1444
2016-05-18T05:30:47.975Z,1452
2016-05-18T05:31:53.587Z,1500
2016-05-18T05:32:45.074Z,1528
2016-05-18T05:33:48.265Z,1532
2016-05-18T05:34:47.595Z,1544
2016-05-18T05:35:41.973Z,1608
2016-05-18T05:36:50.194Z,1636
2016-05-18T05:37:50.541Z,1664
2016-05-18T05:38:50.122Z,1672
2016-05-18T05:39:44.359Z,1716
2016-05-18T05:40:50.346Z,1744
2016-05-18T05:41:47.661Z,1768
2016-05-18T05:42:53.242Z,1808
2016-05-18T05:43:49.994Z,1832
2016-05-18T05:44:43.981Z,1828
2016-05-18T05:45:44.250Z,1868
2016-05-18T05:46:49.877Z,1888
2016-05-18T05:47:50.317Z,1888
2016-05-18T05:48:40.930Z,1900
2016-05-18T05:49:55.947Z,1880
2016-05-18T05:50:45.247Z,1836
2016-05-18T05:51:46.782Z,1776
2016-05-18T05:52:46.877Z,1768
2016-05-18T05:53:44.146Z,1812
2016-05-18T05:54:43.743Z,1868
2016-05-18T05:55:40.886Z,1904
2016-05-18T05:56:43.389Z,1904
2016-05-18T05:57:40.455Z,1928
2016-05-18T05:58:43.301Z,1860
2016-05-18T05:59:40.381Z,1792
2016-05-18T06:00:40.306Z,1928
2016-05-18T06:01:40.137Z,1900
2016-05-18T06:02:43.233Z,1764
2016-05-18T06:03:43.876Z,1596
2016-05-18T06:04:40.692Z,1768
2016-05-18T06:05:43.695Z,2024
2016-05-18T06:06:44.025Z,1976
2016-05-18T06:07:42.996Z,2204
2016-05-18T06:08:43.609Z,2316
2016-05-18T06:09:40.517Z,2456
2016-05-18T06:10:51.942Z,2352
2016-05-18T06:11:42.789Z,2536
2016-05-18T06:12:45.634Z,2644
2016-05-18T06:13:43.106Z,2620
2016-05-18T06:14:55.077Z,2468
2016-05-18T06:15:42.283Z,2348
2016-05-18T06:16:42.975Z,2208
2016-05-18T06:17:42.930Z,2156
2016-05-18T06:18:42.869Z,2152
2016-05-18T06:19:45.685Z,2092
2016-05-18T06:20:42.922Z,2088
2016-05-18T06:21:42.581Z,2120
2016-05-18T06:22:42.615Z,2196
2016-05-18T06:23:41.414Z,2236
2016-05-18T06:24:39.480Z,2296
2016-05-18T06:25:42.404Z,2352
2016-05-18T06:26:42.907Z,2392
2016-05-18T06:27:42.082Z,2428
2016-05-18T06:28:44.881Z,2476
2016-05-18T06:29:42.274Z,2508
2016-05-18T06:30:49.293Z,2532
2016-05-18T06:31:53.748Z,2500
2016-05-18T06:32:50.798Z,2480
2016-05-18T06:33:42.004Z,2464
2016-05-18T06:34:45.038Z,2484
2016-05-18T06:35:38.822Z,2524
2016-05-18T06:36:41.981Z,2556
2016-05-18T06:37:50.452Z,2580
2016-05-18T06:38:41.861Z,2572
2016-05-18T06:39:38.661Z,2544
2016-05-18T06:40:42.414Z,2532
2016-05-18T06:41:41.448Z,2532
2016-05-18T06:42:38.340Z,2524
2016-05-18T06:43:41.389Z,2488
2016-05-18T06:44:38.283Z,2460
2016-05-18T06:45:38.880Z,2492
2016-05-18T06:46:41.195Z,2568
2016-05-18T06:47:38.088Z,2608
2016-05-18T06:48:38.029Z,2680
2016-05-18T06:49:38.203Z,2736
2016-05-18T06:50:38.550Z,2856
2016-05-18T06:51:40.912Z,2944
2016-05-18T06:52:37.867Z,3084
2016-05-18T06:53:37.870Z,3180
2016-05-18T06:54:37.780Z,3232
2016-05-18T06:55:37.797Z,3252
2016-05-18T06:56:37.550Z,3248
2016-05-18T06:57:37.631Z,3248
2016-05-18T06:58:37.790Z,3180
2016-05-18T06:59:37.621Z,3116
2016-05-18T07:00:38.577Z,3112
2016-05-18T07:01:37.454Z,3160
2016-05-18T07:02:40.332Z,3256
2016-05-18T07:03:40.351Z,3284
2016-05-18T07:04:40.321Z,3308
2016-05-18T07:05:39.199Z,3284
2016-05-18T07:06:40.265Z,3248
2016-05-18T07:07:43.064Z,3248
2016-05-18T07:08:46.535Z,3244
2016-05-18T07:09:40.476Z,3260
2016-05-18T07:10:44.338Z,3340
2016-05-18T07:11:43.075Z,3472
2016-05-18T07:12:37.015Z,3520
2016-05-18T07:13:55.189Z,3580
2016-05-18T07:14:42.584Z,3628
2016-05-18T07:15:37.554Z,3664
2016-05-18T07:16:48.667Z,3724
2016-05-18T07:17:39.669Z,3828
2016-05-18T07:18:37.156Z,4020
2016-05-18T07:19:42.909Z,4264
2016-05-18T07:20:42.927Z,4468
2016-05-18T07:21:36.508Z,4612
2016-05-18T07:22:46.730Z,4716
2016-05-18T07:23:39.966Z,4812
2016-05-18T07:24:36.344Z,4816
2016-05-18T07:25:40.863Z,4860
2016-05-18T07:26:45.288Z,4832
2016-05-18T07:27:39.040Z,4756
2016-05-18T07:28:37.011Z,4608
2016-05-18T07:29:51.342Z,4380
2016-05-18T07:30:40.470Z,4220
2016-05-18T07:31:36.552Z,4080
2016-05-18T07:32:35.819Z,3996
2016-05-18T07:33:38.790Z,3932
2016-05-18T07:34:35.855Z,3844
2016-05-18T07:35:35.718Z,3804
2016-05-18T07:36:35.861Z,3676
2016-05-18T07:37:38.785Z,3724
2016-05-18T07:38:39.132Z,3940
2016-05-18T07:39:35.509Z,4068
2016-05-18T07:40:36.576Z,4212
2016-05-18T07:41:38.546Z,4468
2016-05-18T07:42:35.534Z,4500
2016-05-18T07:43:35.833Z,4764
2016-05-18T07:44:38.351Z,4600
2016-05-18T07:45:36.089Z,4528
2016-05-18T07:46:38.373Z,4484
2016-05-18T07:47:41.312Z,4352
2016-05-18T07:48:38.253Z,4232
2016-05-18T07:49:41.036Z,4108
2016-05-18T07:50:38.148Z,4220
2016-05-18T07:51:35.433Z,4412
2016-05-18T07:52:38.060Z,4520
2016-05-18T07:53:37.860Z,4560
2016-05-18T07:54:37.706Z,4560
2016-05-18T07:55:35.881Z,4484
2016-05-18T07:56:34.868Z,4492
2016-05-18T07:57:34.777Z,4612
2016-05-18T07:58:34.982Z,4712
2016-05-18T07:59:34.908Z,4692
2016-05-18T08:00:35.176Z,4700
2016-05-18T08:01:37.491Z,4720
2016-05-18T08:02:34.760Z,4576
2016-05-18T08:03:40.465Z,4248
2016-05-18T08:04:37.733Z,4156
2016-05-18T08:05:34.689Z,4140
2016-05-18T08:06:34.332Z,4236
2016-05-18T08:07:34.382Z,4372
2016-05-18T08:08:34.791Z,4404
2016-05-18T08:09:34.247Z,4372
2016-05-18T08:10:35.671Z,4328
2016-05-18T08:11:34.221Z,4208
2016-05-18T08:12:36.973Z,4184
2016-05-18T08:13:34.117Z,4424
2016-05-18T08:14:34.245Z,4676
2016-05-18T08:15:34.559Z,4740
2016-05-18T08:16:43.000Z,4932
2016-05-18T08:17:33.924Z,5096
2016-05-18T08:18:37.020Z,5204
2016-05-18T08:19:36.648Z,5192
2016-05-18T08:20:33.792Z,5076
2016-05-18T08:21:36.420Z,4940
2016-05-18T08:22:43.235Z,4768
2016-05-18T08:23:36.581Z,4668
2016-05-18T08:24:33.584Z,4720
2016-05-18T08:25:34.087Z,4928
2016-05-18T08:26:36.574Z,5044
2016-05-18T08:27:33.743Z,5088
2016-05-18T08:28:33.304Z,5212
2016-05-18T08:29:33.505Z,5328
2016-05-18T08:30:40.487Z,5356
2016-05-18T08:31:33.470Z,5476
2016-05-18T08:32:39.508Z,5616
2016-05-18T08:33:33.682Z,5560
2016-05-18T08:34:40.029Z,5360
2016-05-18T08:35:37.187Z,5796
2016-05-18T08:36:33.190Z,5592
2016-05-18T08:37:33.283Z,5572
2016-05-18T08:38:34.041Z,5156
2016-05-18T08:39:33.612Z,4896
2016-05-18T08:40:34.010Z,4696
2016-05-18T08:41:33.534Z,4560
2016-05-18T08:42:33.323Z,4440
2016-05-18T08:43:34.203Z,4420
2016-05-18T08:44:33.021Z,4356
2016-05-18T08:45:33.010Z,4208
2016-05-18T08:46:35.734Z,4040
2016-05-18T08:47:32.769Z,3980
2016-05-18T08:48:32.836Z,4344
2016-05-18T08:49:35.854Z,4312
2016-05-18T08:50:42.420Z,4292
2016-05-18T08:51:32.642Z,4348
2016-05-18T08:52:35.817Z,4432
2016-05-18T08:53:32.430Z,4576
2016-05-18T08:54:32.526Z,4560
2016-05-18T08:55:32.326Z,4648
2016-05-18T08:56:35.531Z,4688
2016-05-18T08:57:32.613Z,4776
2016-05-18T08:58:32.396Z,4772
2016-05-18T08:59:35.368Z,4968
2016-05-18T09:00:32.324Z,5040
2016-05-18T09:01:32.294Z,4872
2016-05-18T09:02:32.454Z,4880
2016-05-18T09:03:32.222Z,4668
2016-05-18T09:04:32.085Z,4540
2016-05-18T09:05:32.399Z,4424
2016-05-18T09:06:31.918Z,4296
2016-05-18T09:07:32.248Z,4292
2016-05-18T09:08:32.204Z,4436
2016-05-18T09:09:31.848Z,4684
2016-05-18T09:10:31.819Z,4872
2016-05-18T09:11:35.228Z,5060
2016-05-18T09:12:31.746Z,5248
2016-05-18T09:13:31.874Z,5172
2016-05-18T09:14:31.517Z,5060
2016-05-18T09:15:35.942Z,5228
2016-05-18T09:16:34.773Z,5080
2016-05-18T09:17:31.526Z,5184
2016-05-18T09:18:31.684Z,5308
2016-05-18T09:19:31.453Z,5608
2016-05-18T09:20:31.595Z,5628
2016-05-18T09:21:31.317Z,5688
2016-05-18T09:22:34.695Z,5968
2016-05-18T09:23:40.323Z,5996
2016-05-18T09:24:34.169Z,5636
2016-05-18T09:25:31.047Z,5644
2016-05-18T09:26:34.081Z,5896
2016-05-18T09:27:43.521Z,5524
2016-05-18T09:28:37.477Z,5232
2016-05-18T09:29:33.948Z,5252
2016-05-18T09:30:30.904Z,5112
2016-05-18T09:31:34.063Z,4876
2016-05-18T09:32:31.410Z,4924
2016-05-18T09:33:36.990Z,4964
2016-05-18T09:34:30.602Z,5136
2016-05-18T09:35:30.824Z,5352
2016-05-18T09:36:33.857Z,5488
2016-05-18T09:37:33.595Z,6024
2016-05-18T09:38:30.941Z,6428
2016-05-18T09:39:33.601Z,6612
2016-05-18T09:40:30.493Z,7044
2016-05-18T09:41:36.496Z,6848
2016-05-18T09:42:30.342Z,6688
2016-05-18T09:43:33.329Z,6524
2016-05-18T09:44:33.301Z,6284
2016-05-18T09:45:33.242Z,5852
2016-05-18T09:46:36.056Z,5516
2016-05-18T09:47:29.997Z,5332
2016-05-18T09:48:30.078Z,5364
2016-05-18T09:49:33.095Z,5424
2016-05-18T09:50:30.036Z,5216
2016-05-18T09:51:30.211Z,5052
2016-05-18T09:52:30.073Z,4940
2016-05-18T09:53:33.278Z,4796
2016-05-18T09:54:29.812Z,4636
2016-05-18T09:55:35.847Z,4584
2016-05-18T09:56:29.818Z,4500
2016-05-18T09:57:29.727Z,4392
2016-05-18T09:58:36.214Z,4332
2016-05-18T09:59:29.513Z,4184
2016-05-18T10:00:35.797Z,3984
2016-05-18T10:01:29.613Z,3940
2016-05-18T10:02:31.631Z,3944
2016-05-18T10:03:29.821Z,3916
2016-05-18T10:04:29.371Z,3900
2016-05-18T10:05:35.530Z,3780
2016-05-18T10:06:32.844Z,3636
2016-05-18T10:07:29.441Z,3500
2016-05-18T10:08:32.085Z,3388
2016-05-18T10:09:35.259Z,3264
2016-05-18T10:10:38.340Z,3120
2016-05-18T10:11:29.265Z,2996
2016-05-18T10:12:29.517Z,2984
2016-05-18T10:13:28.848Z,3028
2016-05-18T10:14:32.195Z,3132
2016-05-18T10:15:30.025Z,3228
2016-05-18T10:16:55.356Z,3256
2016-05-18T10:17:29.265Z,3284
2016-05-18T10:18:29.159Z,3352
2016-05-18T10:19:28.942Z,3532
2016-05-18T10:20:29.429Z,3776
2016-05-18T10:21:32.073Z,3968
2016-05-18T10:22:31.700Z,4068
2016-05-18T10:23:29.062Z,4096
2016-05-18T10:24:28.628Z,4104
2016-05-18T10:25:31.864Z,4124
2016-05-18T10:26:31.602Z,4184
2016-05-18T10:27:31.870Z,4332
2016-05-18T10:28:37.419Z,4544
2016-05-18T10:29:28.906Z,4720
2016-05-18T10:30:28.297Z,5008
2016-05-18T10:31:28.456Z,5256
2016-05-18T10:32:37.243Z,5608
2016-05-18T10:33:30.949Z,5884
2016-05-18T10:34:32.999Z,6112
2016-05-18T10:35:28.217Z,6204
2016-05-18T10:36:31.019Z,6288
2016-05-18T10:37:32.396Z,6308
2016-05-18T10:38:28.177Z,6524
2016-05-18T10:39:28.712Z,6636
2016-05-18T10:40:31.593Z,6684
2016-05-18T10:41:27.608Z,6732
2016-05-18T10:42:31.332Z,6828
2016-05-18T10:43:27.613Z,7028
2016-05-18T10:44:30.604Z,7304
2016-05-18T10:45:30.574Z,7472
2016-05-18T10:46:27.465Z,7460
2016-05-18T10:47:27.499Z,7412
2016-05-18T10:48:27.377Z,7504
2016-05-18T10:49:27.521Z,7672
2016-05-18T10:50:33.291Z,7816
2016-05-18T10:51:27.634Z,7576
2016-05-18T10:52:27.498Z,7600
2016-05-18T10:53:33.612Z,7636
2016-05-18T10:54:27.112Z,7864
2016-05-18T10:55:27.209Z,7556
2016-05-18T10:56:27.258Z,6940
2016-05-18T10:57:30.373Z,6620
2016-05-18T10:58:32.953Z,6432
2016-05-18T10:59:29.737Z,6156
2016-05-18T11:00:29.709Z,5724
2016-05-18T11:01:30.150Z,5216
2016-05-18T11:02:30.324Z,4812
2016-05-18T11:03:29.702Z,4408
2016-05-18T11:04:26.952Z,4100
2016-05-18T11:05:26.954Z,3848
2016-05-18T11:06:29.975Z,3760
2016-05-18T11:07:26.381Z,3616
2016-05-18T11:08:26.509Z,3472
2016-05-18T11:09:29.293Z,3492
2016-05-18T11:10:29.623Z,3548
2016-05-18T11:11:26.236Z,3492
2016-05-18T11:12:35.366Z,3304
2016-05-18T11:13:32.510Z,3164
2016-05-18T11:14:29.260Z,3140
2016-05-18T11:15:32.436Z,3104
2016-05-18T11:16:26.154Z,2952
2016-05-18T11:17:25.940Z,2792
2016-05-18T11:18:26.004Z,2796
2016-05-18T11:19:26.335Z,2876
2016-05-18T11:20:28.822Z,2980
2016-05-18T11:21:25.903Z,3092
2016-05-18T11:22:30.190Z,3160
2016-05-18T11:23:25.612Z,3272
2016-05-18T11:24:25.817Z,3324
2016-05-18T11:25:28.773Z,3240
2016-05-18T11:26:25.682Z,3124
2016-05-18T11:27:29.559Z,2964
2016-05-18T11:28:25.626Z,2868
2016-05-18T11:29:28.565Z,2844
2016-05-18T11:30:25.442Z,2832
2016-05-18T11:31:25.711Z,2848
2016-05-18T11:32:25.448Z,2892
2016-05-18T11:33:25.419Z,2928
2016-05-18T11:34:28.469Z,2996
2016-05-18T11:35:25.206Z,3028
2016-05-18T11:36:25.303Z,2856
2016-05-18T11:37:25.227Z,2712
2016-05-18T11:38:28.933Z,2632
2016-05-18T11:39:25.030Z,2504
2016-05-18T11:40:34.644Z,2500
2016-05-18T11:41:25.051Z,2488
2016-05-18T11:42:24.975Z,2464
2016-05-18T11:43:25.135Z,2468
2016-05-18T11:44:28.184Z,2472
2016-05-18T11:45:25.030Z,2368
2016-05-18T11:46:24.860Z,2272
2016-05-18T11:47:27.785Z,2192
2016-05-18T11:48:24.523Z,2080
2016-05-18T11:49:24.650Z,2056
2016-05-18T11:50:24.466Z,2244
2016-05-18T11:51:24.593Z,2376
2016-05-18T11:52:24.533Z,2640
2016-05-18T11:53:24.787Z,3024
2016-05-18T11:54:24.492Z,3380
2016-05-18T11:55:24.370Z,3632
2016-05-18T11:56:24.247Z,3904
2016-05-18T11:57:24.344Z,4060
2016-05-18T11:58:27.300Z,4084
2016-05-18T11:59:24.239Z,4180
2016-05-18T12:00:24.211Z,4388
2016-05-18T12:01:24.214Z,4656
2016-05-18T12:02:23.778Z,4812
2016-05-18T12:03:27.469Z,5080
2016-05-18T12:04:23.863Z,5356
2016-05-18T12:05:24.412Z,6164
2016-05-18T12:06:24.071Z,6304
2016-05-18T12:07:24.152Z,6172
2016-05-18T12:08:24.014Z,6416
2016-05-18T12:09:24.016Z,6952
2016-05-18T12:10:23.566Z,7356
2016-05-18T12:11:26.928Z,7512
2016-05-18T12:12:23.947Z,7900
2016-05-18T12:13:23.699Z,8220
2016-05-18T12:14:23.374Z,8352
2016-05-18T12:15:23.517Z,8192
2016-05-18T12:16:23.441Z,7960
2016-05-18T12:17:23.851Z,7860
2016-05-18T12:18:23.790Z,7872
2016-05-18T12:19:23.450Z,7584
2016-05-18T12:20:24.296Z,7524
2016-05-18T12:21:26.501Z,6988
2016-05-18T12:22:24.099Z,6580
2016-05-18T12:23:27.039Z,6104
2016-05-18T12:24:24.150Z,5632
2016-05-18T12:25:23.295Z,5100
2016-05-18T12:26:23.297Z,4564
2016-05-18T12:27:26.175Z,4000
2016-05-18T12:28:22.942Z,3692
2016-05-18T12:29:22.883Z,3700
2016-05-18T12:30:25.948Z,3740
2016-05-18T12:31:28.810Z,3564
2016-05-18T12:32:23.438Z,3468
2016-05-18T12:33:23.409Z,3472
2016-05-18T12:34:22.943Z,3784
2016-05-18T12:35:25.853Z,4368
2016-05-18T12:36:23.152Z,5096
2016-05-18T12:37:22.888Z,6012
2016-05-18T12:38:25.798Z,7008
2016-05-18T12:39:22.675Z,7824
2016-05-18T12:40:23.334Z,8504
2016-05-18T12:41:25.446Z,8776
2016-05-18T12:42:22.277Z,8836
2016-05-18T12:43:22.499Z,8696
2016-05-18T12:44:22.220Z,8784
2016-05-18T12:45:25.457Z,8932
2016-05-18T12:46:24.991Z,9116
2016-05-18T12:47:28.057Z,9256
2016-05-18T12:48:22.371Z,9376
2016-05-18T12:49:22.045Z,9352
2016-05-18T12:50:28.393Z,9236
2016-05-18T12:51:22.489Z,9152
2016-05-18T12:52:21.960Z,8812
2016-05-18T12:53:25.370Z,8244
2016-05-18T12:54:24.981Z,7856
2016-05-18T12:55:21.703Z,7472
2016-05-18T12:56:21.690Z,6936
2016-05-18T12:57:22.006Z,6312
2016-05-18T12:58:24.445Z,5740
2016-05-18T12:59:21.589Z,5176
2016-05-18T13:00:21.669Z,4660
2016-05-18T13:01:21.469Z,4508
2016-05-18T13:02:21.706Z,4488
2016-05-18T13:03:21.287Z,4316
2016-05-18T13:04:21.367Z,3840
2016-05-18T13:05:21.573Z,3408
2016-05-18T13:06:21.326Z,3220
2016-05-18T13:07:21.204Z,3188
2016-05-18T13:08:25.253Z,3008
2016-05-18T13:09:21.006Z,2824
2016-05-18T13:10:21.244Z,2704
2016-05-18T13:11:23.964Z,2288
2016-05-18T13:12:21.436Z,1644
2016-05-18T13:13:21.126Z,1280
2016-05-18T13:14:23.801Z,1212
2016-05-18T13:15:20.850Z,1352
2016-05-18T13:16:20.807Z,1672
2016-05-18T13:17:23.793Z,2156
2016-05-18T13:18:20.796Z,2524
2016-05-18T13:19:26.971Z,2992
2016-05-18T13:20:24.270Z,3236
2016-05-18T13:21:21.210Z,2980
2016-05-18T13:22:20.573Z,3364
2016-05-18T13:23:27.590Z,2956
2016-05-18T13:24:20.968Z,2512
2016-05-18T13:25:23.548Z,2132
2016-05-18T13:26:23.442Z,1612
2016-05-18T13:27:24.007Z,1180
2016-05-18T13:28:20.542Z,960
2016-05-18T13:29:23.325Z,812
2016-05-18T13:30:20.359Z,732
2016-05-18T13:31:20.471Z,776
2016-05-18T13:32:19.928Z,808
2016-05-18T13:33:22.711Z,868
2016-05-18T13:34:20.433Z,936
2016-05-18T13:35:29.201Z,992
2016-05-18T13:36:20.345Z,1100
2016-05-18T13:37:20.378Z,1520
2016-05-18T13:38:19.944Z,1676
2016-05-18T13:39:22.649Z,1588
2016-05-18T13:40:19.871Z,1488
2016-05-18T13:41:19.545Z,1692
2016-05-18T13:42:19.704Z,1940
2016-05-18T13:43:19.738Z,2048